createdAt,value
2019-03-10T00:00:11.448Z,71.55
2019-03-10T00:02:39.994Z,71.59
2019-03-10T00:05:08.761Z,71.96
2019-03-10T00:07:37.235Z,71.24
2019-03-10T00:10:09.080Z,71.05
2019-03-10T00:12:37.692Z,71.27
2019-03-10T00:15:11.126Z,71.40
2019-03-10T00:17:39.718Z,71.64
2019-03-10T00:20:10.434Z,71.64
2019-03-10T00:22:39.049Z,71.63
2019-03-10T00:25:09.192Z,71.42
2019-03-10T00:27:37.745Z,71.63
2019-03-10T00:30:09.265Z,71.65
2019-03-10T00:32:37.734Z,71.38
2019-03-10T00:35:07.093Z,71.06
2019-03-10T00:37:35.611Z,71.55
2019-03-10T00:40:23.291Z,71.62
2019-03-10T00:43:00.559Z,71.47
2019-03-10T00:45:50.236Z,71.77
2019-03-10T00:48:55.030Z,71.97
2019-03-10T00:51:53.473Z,71.40
2019-03-10T00:54:21.929Z,71.44
2019-03-10T00:56:50.537Z,71.96
2019-03-10T00:59:19.144Z,72.25
2019-03-10T01:01:47.636Z,72.72
2019-03-10T01:04:16.061Z,72.87
2019-03-10T01:06:44.653Z,72.52
2019-03-10T01:09:13.159Z,73.00
2019-03-10T01:11:41.601Z,73.23
2019-03-10T01:14:10.216Z,72.60
2019-03-10T01:16:39.072Z,72.33
2019-03-10T01:19:07.600Z,72.07
2019-03-10T01:21:38.190Z,72.27
2019-03-10T01:24:06.761Z,72.58
2019-03-10T01:26:35.314Z,72.83
2019-03-10T01:29:03.879Z,72.81
2019-03-10T01:31:55.090Z,72.83
2019-03-10T01:34:45.929Z,73.14
2019-03-10T01:37:14.382Z,72.91
2019-03-10T01:39:42.802Z,69.82
2019-03-10T01:42:11.331Z,68.94
2019-03-10T01:44:39.818Z,68.52
2019-03-10T01:47:08.312Z,65.46
2019-03-10T01:49:36.976Z,64.02
2019-03-10T01:52:05.545Z,62.36
2019-03-10T01:54:33.959Z,58.17
2019-03-10T01:57:02.487Z,56.43
2019-03-10T01:59:31.010Z,55.46
2019-03-10T02:01:59.431Z,55.52
2019-03-10T02:04:27.872Z,56.38
2019-03-10T02:06:56.380Z,56.82
2019-03-10T02:09:24.842Z,57.17
2019-03-10T02:11:53.253Z,58.26
2019-03-10T02:14:21.691Z,60.39
2019-03-10T02:16:50.202Z,62.63
2019-03-10T02:19:18.733Z,63.14
2019-03-10T02:21:47.243Z,65.17
2019-03-10T02:24:23.384Z,66.53
2019-03-10T02:26:45.886Z,68.44
2019-03-10T02:29:14.343Z,70.10
2019-03-10T02:31:42.805Z,71.45
2019-03-10T02:34:11.221Z,72.17
2019-03-10T02:36:39.671Z,72.58
2019-03-10T02:39:08.754Z,73.16
2019-03-10T02:41:37.218Z,73.97
2019-03-10T02:44:05.779Z,74.67
2019-03-10T02:46:34.236Z,75.06
2019-03-10T02:49:02.741Z,75.69
2019-03-10T02:51:31.255Z,75.90
2019-03-10T02:53:59.686Z,75.77
2019-03-10T02:56:28.221Z,75.48
2019-03-10T02:58:56.834Z,74.99
2019-03-10T03:01:25.246Z,74.88
2019-03-10T03:03:53.696Z,74.95
2019-03-10T03:06:22.518Z,76.09
2019-03-10T03:08:50.963Z,77.03
2019-03-10T03:11:19.477Z,79.31
2019-03-10T03:13:47.918Z,81.75
2019-03-10T03:16:16.454Z,82.78
2019-03-10T03:18:44.864Z,83.41
2019-03-10T03:21:13.284Z,84.13
2019-03-10T03:23:41.821Z,84.53
2019-03-10T03:26:10.312Z,84.06
2019-03-10T03:28:38.771Z,84.91
2019-03-10T03:31:07.224Z,85.55
2019-03-10T03:33:35.686Z,86.13
2019-03-10T03:36:18.498Z,86.42
2019-03-10T03:38:50.331Z,86.19
2019-03-10T03:41:39.527Z,85.43
2019-03-10T03:44:08.043Z,84.69
2019-03-10T03:46:36.527Z,84.46
2019-03-10T03:49:05.073Z,84.26
2019-03-10T03:51:33.542Z,85.42
2019-03-10T03:54:01.995Z,85.61
2019-03-10T03:56:30.446Z,85.48
2019-03-10T03:58:58.888Z,85.10
2019-03-10T04:01:31.907Z,85.40
2019-03-10T04:04:00.432Z,86.03
2019-03-10T04:06:28.941Z,86.17
2019-03-10T04:08:57.372Z,86.63
2019-03-10T04:11:25.953Z,86.79
2019-03-10T04:13:54.718Z,86.90
2019-03-10T04:16:23.157Z,87.56
2019-03-10T04:18:51.605Z,87.72
2019-03-10T04:21:20.020Z,87.86
2019-03-10T04:23:48.555Z,88.17
2019-03-10T04:26:17.049Z,88.38
2019-03-10T04:28:45.471Z,88.68
2019-03-10T04:31:13.992Z,89.08
2019-03-10T04:33:42.521Z,89.50
2019-03-10T04:36:10.931Z,89.51
2019-03-10T04:38:39.390Z,89.88
2019-03-10T04:41:07.807Z,90.29
2019-03-10T04:43:36.262Z,90.65
2019-03-10T04:46:05.086Z,90.72
2019-03-10T04:48:33.539Z,91.15
2019-03-10T04:51:01.959Z,91.23
2019-03-10T04:53:30.402Z,91.55
2019-03-10T04:56:12.527Z,91.73
2019-03-10T04:58:44.631Z,92.38
2019-03-10T05:01:13.130Z,92.73
2019-03-10T05:03:41.543Z,92.85
2019-03-10T05:06:10.004Z,93.13
2019-03-10T05:08:38.484Z,93.20
2019-03-10T05:11:07.011Z,93.46
2019-03-10T05:13:35.429Z,93.61
2019-03-10T05:16:04.233Z,94.03
2019-03-10T05:18:32.701Z,94.19
2019-03-10T05:21:01.112Z,94.38
2019-03-10T05:23:32.014Z,94.25
2019-03-10T05:26:00.712Z,94.18
2019-03-10T05:28:31.205Z,94.39
2019-03-10T05:30:59.773Z,94.37
2019-03-10T05:33:28.311Z,94.23
2019-03-10T05:35:56.759Z,94.54
2019-03-10T05:38:25.243Z,94.45
2019-03-10T05:40:53.691Z,94.25
2019-03-10T05:43:22.140Z,94.04
2019-03-10T05:45:50.630Z,94.22
2019-03-10T05:48:19.181Z,94.31
2019-03-10T05:50:47.595Z,94.22
2019-03-10T05:53:16.072Z,94.48
2019-03-10T05:55:44.516Z,94.57
2019-03-10T05:58:13.034Z,95.06
2019-03-10T06:00:42.965Z,95.06
2019-03-10T06:03:11.645Z,95.24
2019-03-10T06:05:40.069Z,95.06
2019-03-10T06:08:08.583Z,95.08
2019-03-10T06:10:37.092Z,94.97
2019-03-10T06:13:05.566Z,95.02
2019-03-10T06:15:34.058Z,94.87
2019-03-10T06:18:12.773Z,95.00
2019-03-10T06:20:32.751Z,95.14
2019-03-10T06:23:03.311Z,95.10
2019-03-10T06:25:31.336Z,95.21
2019-03-10T06:27:59.797Z,95.39
2019-03-10T06:30:28.290Z,95.82
2019-03-10T06:32:56.746Z,95.82
2019-03-10T06:35:25.263Z,95.94
2019-03-10T06:37:53.720Z,95.77
2019-03-10T06:40:31.727Z,94.51
2019-03-10T06:42:52.395Z,94.73
2019-03-10T06:45:20.916Z,94.34
2019-03-10T06:47:49.350Z,93.85
2019-03-10T06:50:17.792Z,93.41
2019-03-10T06:52:46.270Z,90.95
2019-03-10T06:55:14.715Z,90.32
2019-03-10T06:57:43.240Z,89.13
2019-03-10T07:00:13.518Z,88.99
2019-03-10T07:02:42.041Z,88.12
2019-03-10T07:05:12.576Z,87.94
2019-03-10T07:07:41.182Z,87.60
2019-03-10T07:10:16.770Z,87.28
2019-03-10T07:12:45.295Z,86.80
2019-03-10T07:15:14.521Z,86.28
2019-03-10T07:17:44.011Z,86.55
2019-03-10T07:20:19.839Z,87.06
2019-03-10T07:22:48.354Z,87.79
2019-03-10T07:25:16.869Z,88.36
2019-03-10T07:27:47.020Z,89.54
2019-03-10T07:30:32.224Z,89.68
2019-03-10T07:33:20.302Z,89.84
2019-03-10T07:36:06.663Z,90.01
2019-03-10T07:38:36.721Z,89.67
2019-03-10T07:41:18.910Z,90.14
2019-03-10T07:43:51.676Z,89.88
2019-03-10T07:46:21.796Z,89.27
2019-03-10T07:48:54.872Z,89.21
2019-03-10T07:51:40.413Z,89.92
2019-03-10T07:54:16.372Z,89.95
2019-03-10T07:57:03.147Z,89.85
2019-03-10T07:59:36.238Z,89.62
2019-03-10T08:02:06.310Z,88.71
2019-03-10T08:04:36.415Z,89.12
2019-03-10T08:07:22.659Z,87.10
2019-03-10T08:09:52.894Z,88.26
2019-03-10T08:12:23.107Z,88.09
2019-03-10T08:14:53.195Z,86.75
2019-03-10T08:17:24.636Z,87.97
2019-03-10T08:19:57.783Z,88.34
2019-03-10T08:22:43.999Z,88.35
2019-03-10T08:25:16.796Z,88.18
2019-03-10T08:28:05.157Z,88.65
2019-03-10T08:30:35.271Z,89.30
2019-03-10T08:33:05.383Z,88.23
2019-03-10T08:35:52.070Z,87.81
2019-03-10T08:38:38.664Z,87.40
2019-03-10T08:41:26.737Z,87.71
2019-03-10T08:44:13.185Z,87.40
2019-03-10T08:46:45.815Z,88.50
2019-03-10T08:49:15.990Z,88.30
2019-03-10T08:51:46.153Z,88.50
2019-03-10T08:54:19.257Z,89.10
2019-03-10T08:57:05.618Z,89.79
2019-03-10T08:59:38.527Z,90.02
2019-03-10T09:02:20.621Z,90.53
2019-03-10T09:04:50.706Z,90.35
2019-03-10T09:07:23.362Z,91.15
2019-03-10T09:09:59.331Z,90.34
2019-03-10T09:12:35.279Z,90.91
2019-03-10T09:15:12.882Z,90.97
2019-03-10T09:17:43.056Z,90.73
2019-03-10T09:20:16.032Z,90.77
2019-03-10T09:22:48.858Z,90.91
2019-03-10T09:25:18.909Z,91.48
2019-03-10T09:27:55.153Z,91.64
2019-03-10T09:30:27.768Z,91.82
2019-03-10T09:33:15.613Z,91.56
2019-03-10T09:35:48.281Z,91.45
2019-03-10T09:38:24.243Z,90.99
2019-03-10T09:41:00.675Z,90.70
2019-03-10T09:43:43.089Z,90.86
2019-03-10T09:46:16.140Z,91.33
2019-03-10T09:48:51.755Z,91.88
2019-03-10T09:51:21.840Z,92.40
2019-03-10T09:53:51.897Z,91.76
2019-03-10T09:56:37.032Z,91.35
2019-03-10T09:59:12.770Z,90.52
2019-03-10T10:01:42.924Z,89.86
2019-03-10T10:04:18.830Z,89.62
2019-03-10T10:07:04.385Z,89.58
2019-03-10T10:09:34.479Z,89.08
2019-03-10T10:12:13.304Z,87.84
2019-03-10T10:14:45.104Z,87.95
2019-03-10T10:17:20.926Z,86.68
2019-03-10T10:19:51.335Z,86.71
2019-03-10T10:22:23.987Z,87.92
2019-03-10T10:25:00.069Z,87.23
2019-03-10T10:27:42.394Z,86.83
2019-03-10T10:30:23.320Z,86.97
2019-03-10T10:33:05.746Z,87.10
2019-03-10T10:38:31.140Z,87.59
2019-03-10T10:41:01.216Z,87.86
2019-03-10T10:43:42.958Z,88.87
2019-03-10T10:46:15.712Z,88.45
2019-03-10T10:48:51.521Z,88.37
2019-03-10T10:51:33.706Z,87.46
2019-03-10T10:54:09.408Z,88.10
2019-03-10T10:56:41.994Z,86.83
2019-03-10T10:59:12.072Z,86.81
2019-03-10T11:01:53.972Z,86.73
2019-03-10T11:04:40.632Z,86.96
2019-03-10T11:07:22.631Z,87.86
2019-03-10T11:10:08.913Z,87.28
2019-03-10T11:12:44.876Z,88.35
2019-03-10T11:15:14.975Z,89.10
2019-03-10T11:17:47.546Z,88.80
2019-03-10T11:20:17.711Z,89.44
2019-03-10T11:22:47.871Z,86.89
2019-03-10T11:25:18.048Z,86.39
2019-03-10T11:28:03.289Z,87.08
2019-03-10T11:30:49.856Z,85.67
2019-03-10T11:33:22.534Z,86.27
2019-03-10T11:35:58.414Z,85.61
2019-03-10T11:38:36.970Z,85.06
2019-03-10T11:41:33.276Z,85.10
2019-03-10T11:43:59.237Z,83.19
2019-03-10T11:46:38.438Z,82.84
2019-03-10T11:49:11.290Z,81.04
2019-03-10T11:51:47.163Z,80.58
2019-03-10T11:54:22.780Z,80.25
2019-03-10T11:56:55.816Z,78.28
2019-03-10T11:59:25.903Z,77.25
2019-03-10T12:02:16.075Z,75.06
2019-03-10T12:04:45.901Z,75.49
2019-03-10T12:07:16.105Z,75.92
2019-03-10T12:09:44.626Z,78.65
2019-03-10T12:12:13.232Z,75.22
2019-03-10T12:14:41.783Z,75.79
2019-03-10T12:17:10.252Z,73.64
2019-03-10T12:19:38.684Z,75.71
2019-03-10T12:22:07.257Z,76.19
2019-03-10T12:24:35.758Z,76.64
2019-03-10T12:27:04.359Z,76.99
2019-03-10T12:29:32.842Z,76.90
2019-03-10T12:32:01.274Z,76.75
2019-03-10T12:34:29.894Z,76.34
2019-03-10T12:36:58.397Z,75.53
2019-03-10T12:39:26.856Z,74.28
2019-03-10T12:41:58.780Z,72.44
2019-03-10T12:44:25.529Z,71.95
2019-03-10T12:46:54.066Z,71.10
2019-03-10T12:49:22.675Z,74.56
2019-03-10T12:51:51.100Z,74.69
2019-03-10T12:54:19.644Z,75.27
2019-03-10T12:56:48.075Z,75.01
2019-03-10T12:59:17.508Z,76.50
2019-03-10T13:01:45.966Z,75.97
2019-03-10T13:04:14.467Z,78.23
2019-03-10T13:06:43.083Z,79.47
2019-03-10T13:09:11.564Z,80.36
2019-03-10T13:11:40.178Z,79.95
2019-03-10T13:14:08.709Z,80.55
2019-03-10T13:16:37.258Z,81.73
2019-03-10T13:19:05.725Z,80.42
2019-03-10T13:21:34.351Z,81.70
2019-03-10T13:24:03.112Z,82.86
2019-03-10T13:26:31.590Z,81.31
2019-03-10T13:29:00.207Z,81.30
2019-03-10T13:31:28.734Z,82.14
2019-03-10T13:33:57.294Z,81.59
2019-03-10T13:36:25.761Z,83.48
2019-03-10T13:38:54.365Z,82.26
2019-03-10T13:41:23.125Z,82.98
2019-03-10T13:43:51.736Z,83.30
2019-03-10T13:46:20.311Z,82.39
2019-03-10T13:48:48.788Z,82.49
2019-03-10T13:51:17.214Z,83.37
2019-03-10T13:53:45.702Z,81.69
2019-03-10T13:56:14.244Z,78.61
2019-03-10T13:58:42.865Z,77.31
2019-03-10T14:01:11.402Z,77.14
2019-03-10T14:03:40.594Z,75.56
2019-03-10T14:06:09.484Z,76.40
2019-03-10T14:08:37.987Z,78.54
2019-03-10T14:11:06.554Z,79.18
2019-03-10T14:13:35.096Z,79.06
2019-03-10T14:16:03.602Z,78.48
2019-03-10T14:18:32.158Z,79.80
2019-03-10T14:21:00.596Z,77.30
2019-03-10T14:23:29.045Z,75.72
2019-03-10T14:25:57.584Z,74.76
2019-03-10T14:28:26.163Z,74.23
2019-03-10T14:30:54.800Z,76.32
2019-03-10T14:33:23.518Z,76.63
2019-03-10T14:35:52.014Z,75.47
2019-03-10T14:38:20.448Z,75.21
2019-03-10T14:40:48.921Z,75.23
2019-03-10T14:43:17.505Z,72.27
2019-03-10T14:45:46.044Z,71.07
2019-03-10T14:48:14.926Z,66.99
2019-03-10T14:50:45.899Z,64.65
2019-03-10T14:53:13.654Z,64.06
2019-03-10T14:55:42.276Z,64.11
2019-03-10T14:58:11.729Z,63.95
2019-03-10T15:00:40.143Z,63.63
2019-03-10T15:03:08.709Z,65.00
2019-03-10T15:05:37.241Z,65.76
2019-03-10T15:08:05.814Z,64.20
2019-03-10T15:10:34.511Z,66.59
2019-03-10T15:13:02.958Z,66.94
2019-03-10T15:15:31.465Z,65.71
2019-03-10T15:17:59.997Z,66.05
2019-03-10T15:20:28.439Z,65.94
2019-03-10T15:22:56.977Z,63.91
2019-03-10T15:25:25.592Z,62.85
2019-03-10T15:27:54.097Z,62.94
2019-03-10T15:30:24.669Z,62.18
2019-03-10T15:32:53.443Z,63.25
2019-03-10T15:35:22.044Z,64.04
2019-03-10T15:37:50.592Z,67.15
2019-03-10T15:40:19.606Z,68.86
2019-03-10T15:42:48.218Z,71.85
2019-03-10T15:45:17.641Z,74.13
2019-03-10T15:47:46.520Z,73.42
2019-03-10T15:50:32.839Z,73.90
2019-03-10T15:53:01.351Z,73.89
2019-03-10T15:55:29.863Z,74.44
2019-03-10T15:57:58.400Z,74.83
2019-03-10T16:00:28.130Z,75.04
2019-03-10T16:02:56.647Z,75.09
2019-03-10T16:05:25.524Z,75.31
2019-03-10T16:07:54.040Z,76.72
2019-03-10T16:10:22.618Z,74.05
2019-03-10T16:12:51.141Z,74.84
2019-03-10T16:15:21.280Z,74.20
2019-03-10T16:17:49.793Z,72.62
2019-03-10T16:20:18.367Z,72.68
2019-03-10T16:22:46.982Z,71.72
2019-03-10T16:25:19.050Z,71.08
2019-03-10T16:27:49.759Z,69.96
2019-03-10T16:30:26.079Z,69.58
2019-03-10T16:32:54.672Z,68.65
2019-03-10T16:35:23.182Z,68.51
2019-03-10T16:37:51.690Z,67.55
2019-03-10T16:40:21.304Z,68.86
2019-03-10T16:42:49.949Z,68.34
2019-03-10T16:45:26.334Z,64.81
2019-03-10T16:47:57.480Z,62.38
2019-03-10T16:50:27.211Z,62.40
2019-03-10T16:52:55.769Z,63.62
2019-03-10T16:55:24.318Z,63.34
2019-03-10T16:57:52.797Z,64.48
2019-03-10T17:00:21.558Z,64.51
2019-03-10T17:02:51.156Z,65.05
2019-03-10T17:05:20.750Z,65.56
2019-03-10T17:07:49.345Z,65.53
2019-03-10T17:10:25.560Z,64.71
2019-03-10T17:12:54.177Z,65.64
2019-03-10T17:15:23.973Z,66.20
2019-03-10T17:17:52.954Z,66.31
2019-03-10T17:20:21.519Z,66.95
2019-03-10T17:22:50.241Z,67.40
2019-03-10T17:25:18.747Z,68.72
2019-03-10T17:27:47.334Z,67.24
2019-03-10T17:30:20.310Z,65.93
2019-03-10T17:32:49.020Z,65.65
2019-03-10T17:35:18.621Z,65.60
2019-03-10T17:37:48.480Z,65.99
2019-03-10T17:40:23.338Z,65.36
2019-03-10T17:42:52.159Z,65.37
2019-03-10T17:45:22.666Z,64.87
2019-03-10T17:47:51.254Z,64.54
2019-03-10T17:50:19.953Z,64.85
2019-03-10T17:52:49.292Z,64.81
2019-03-10T17:55:20.039Z,63.46
2019-03-10T17:57:48.572Z,62.29
2019-03-10T18:00:23.671Z,61.75
2019-03-10T18:02:52.175Z,61.47
2019-03-10T18:05:20.664Z,62.25
2019-03-10T18:07:49.242Z,62.78
2019-03-10T18:10:18.483Z,62.58
2019-03-10T18:12:46.984Z,62.40
2019-03-10T18:15:17.668Z,62.49
2019-03-10T18:17:46.246Z,62.33
2019-03-10T18:20:19.575Z,62.42
2019-03-10T18:22:48.163Z,63.05
2019-03-10T18:25:16.793Z,61.86
2019-03-10T18:27:45.355Z,62.22
2019-03-10T18:30:16.346Z,61.71
2019-03-10T18:32:44.859Z,62.54
2019-03-10T18:35:13.439Z,62.63
2019-03-10T18:37:41.960Z,62.19
2019-03-10T18:40:13.718Z,62.12
2019-03-10T18:42:42.310Z,61.91
2019-03-10T18:45:14.009Z,64.43
2019-03-10T18:47:42.575Z,69.27
2019-03-10T18:50:18.940Z,72.42
2019-03-10T18:52:47.466Z,72.58
2019-03-10T18:55:17.258Z,72.76
2019-03-10T18:57:45.828Z,73.90
2019-03-10T19:00:24.899Z,73.84
2019-03-10T19:02:53.399Z,73.34
2019-03-10T19:05:21.962Z,73.28
2019-03-10T19:07:50.553Z,72.81
2019-03-10T19:10:19.161Z,73.21
2019-03-10T19:12:47.571Z,72.62
2019-03-10T19:15:21.885Z,72.93
2019-03-10T19:17:50.313Z,73.75
2019-03-10T19:20:18.800Z,74.27
2019-03-10T19:22:47.684Z,73.54
2019-03-10T19:25:17.144Z,73.22
2019-03-10T19:27:46.129Z,72.75
2019-03-10T19:30:18.661Z,72.53
2019-03-10T19:32:47.180Z,73.65
2019-03-10T19:35:15.780Z,75.39
2019-03-10T19:37:44.279Z,77.64
2019-03-10T19:40:14.584Z,79.16
2019-03-10T19:42:43.145Z,79.79
2019-03-10T19:45:14.536Z,81.90
2019-03-10T19:47:43.093Z,82.20
2019-03-10T19:50:13.768Z,82.75
2019-03-10T19:52:42.316Z,84.00
2019-03-10T19:55:13.292Z,83.91
2019-03-10T19:57:41.898Z,83.77
2019-03-10T20:00:21.082Z,84.80
2019-03-10T20:02:49.703Z,84.64
2019-03-10T20:05:18.271Z,83.94
2019-03-10T20:07:46.765Z,84.24
2019-03-10T20:10:23.519Z,84.56
2019-03-10T20:12:52.071Z,84.56
2019-03-10T20:15:21.657Z,85.36
2019-03-10T20:17:50.265Z,85.73
2019-03-10T20:20:24.513Z,84.45
2019-03-10T20:22:53.121Z,84.61
2019-03-10T20:25:21.549Z,84.30
2019-03-10T20:27:50.000Z,82.95
2019-03-10T20:30:23.246Z,83.08
2019-03-10T20:32:51.763Z,80.51
2019-03-10T20:35:20.277Z,78.77
2019-03-10T20:37:48.701Z,77.28
2019-03-10T20:40:19.416Z,72.36
2019-03-10T20:42:47.989Z,72.88
2019-03-10T20:45:16.757Z,72.59
2019-03-10T20:47:45.451Z,71.33
2019-03-10T20:50:18.869Z,70.90
2019-03-10T20:52:47.371Z,69.08
2019-03-10T20:55:16.172Z,69.32
2019-03-10T20:57:44.931Z,69.30
2019-03-10T21:00:16.265Z,69.35
2019-03-10T21:02:44.814Z,69.09
2019-03-10T21:05:13.307Z,69.77
2019-03-10T21:07:41.873Z,70.12
2019-03-10T21:10:17.895Z,70.04
2019-03-10T21:12:49.099Z,70.18
2019-03-10T21:15:21.682Z,69.30
2019-03-10T21:17:50.275Z,68.58
2019-03-10T21:20:22.513Z,68.23
2019-03-10T21:22:55.699Z,67.85
2019-03-10T21:25:31.617Z,68.79
2019-03-10T21:28:00.302Z,68.04
2019-03-10T21:30:33.371Z,67.84
2019-03-10T21:33:01.861Z,67.45
2019-03-10T21:35:33.371Z,68.20
2019-03-10T21:38:01.444Z,67.74
2019-03-10T21:40:32.383Z,68.36
2019-03-10T21:43:01.089Z,68.87
2019-03-10T21:45:29.968Z,68.50
2019-03-10T21:47:58.551Z,69.00
2019-03-10T21:50:27.101Z,69.51
2019-03-10T21:52:55.597Z,68.57
2019-03-10T21:55:24.144Z,69.91
2019-03-10T21:57:52.647Z,70.50
2019-03-10T22:00:21.430Z,70.86
2019-03-10T22:02:50.297Z,70.10
2019-03-10T22:05:18.790Z,68.57
2019-03-10T22:07:47.363Z,67.83
2019-03-10T22:10:26.286Z,68.53
2019-03-10T22:12:48.685Z,68.89
2019-03-10T22:15:18.268Z,69.67
2019-03-10T22:17:46.816Z,70.44
2019-03-10T22:20:16.547Z,70.90
2019-03-10T22:22:49.125Z,70.58
2019-03-10T22:25:15.403Z,71.17
2019-03-10T22:27:45.910Z,71.75
2019-03-10T22:30:20.973Z,72.48
2019-03-10T22:32:49.879Z,73.25
2019-03-10T22:35:18.573Z,73.33
2019-03-10T22:37:53.723Z,73.52
2019-03-10T22:40:22.318Z,73.22
2019-03-10T22:42:50.738Z,73.90
2019-03-10T22:45:20.120Z,73.02
2019-03-10T22:47:48.647Z,73.55
2019-03-10T22:50:17.417Z,73.94
2019-03-10T22:52:45.966Z,73.57
2019-03-10T22:55:15.507Z,73.42
2019-03-10T22:57:44.097Z,72.80
2019-03-10T23:00:27.657Z,72.90
2019-03-10T23:02:56.133Z,72.97
2019-03-10T23:05:24.618Z,72.39
2019-03-10T23:07:53.044Z,72.01
2019-03-10T23:10:21.546Z,72.18
2019-03-10T23:12:50.011Z,72.21
2019-03-10T23:15:18.470Z,71.73
2019-03-10T23:17:47.012Z,69.10
2019-03-10T23:20:16.583Z,69.47
2019-03-10T23:22:45.106Z,69.60
2019-03-10T23:25:13.773Z,68.22
2019-03-10T23:27:42.365Z,67.54
2019-03-10T23:30:16.709Z,65.87
2019-03-10T23:32:45.292Z,66.15
2019-03-10T23:35:13.880Z,65.71
2019-03-10T23:37:42.533Z,66.25
2019-03-10T23:40:13.375Z,65.85
2019-03-10T23:42:41.997Z,63.95
2019-03-10T23:45:12.972Z,65.08
2019-03-10T23:47:41.477Z,63.38
2019-03-10T23:50:12.623Z,63.39
2019-03-10T23:52:41.040Z,63.84
2019-03-10T23:55:11.385Z,64.72
2019-03-10T23:57:39.891Z,64.00
